createdAt,value
2019-01-31T00:05:11.535Z,10.40
2019-01-31T00:10:50.764Z,10.20
2019-01-31T00:16:27.962Z,10.20
2019-01-31T00:21:53.499Z,10.20
2019-01-31T00:27:56.965Z,10.10
2019-01-31T00:33:47.428Z,10.20
2019-01-31T00:39:33.886Z,10.10
2019-01-31T00:45:19.758Z,10.10
2019-01-31T00:50:55.204Z,10.30
2019-01-31T00:56:26.075Z,10.30
2019-01-31T01:02:05.512Z,10.40
2019-01-31T01:07:45.414Z,10.40
2019-01-31T01:13:05.406Z,10.50
2019-01-31T01:18:57.049Z,10.30
2019-01-31T01:24:33.828Z,10.30
2019-01-31T01:30:31.356Z,10.30
2019-01-31T01:35:50.875Z,10.30
2019-01-31T01:41:41.924Z,10.40
2019-01-31T01:47:19.892Z,10.60
2019-01-31T01:53:03.483Z,10.70
2019-01-31T01:58:23.718Z,10.60
2019-01-31T02:04:20.382Z,10.40
2019-01-31T02:10:20.232Z,10.50
2019-01-31T02:15:52.143Z,10.50
2019-01-31T02:21:52.881Z,10.50
2019-01-31T02:27:55.895Z,10.50
2019-01-31T02:33:24.170Z,10.50
2019-01-31T02:38:53.674Z,10.50
2019-01-31T02:44:13.898Z,10.40
2019-01-31T02:50:03.941Z,10.10
2019-01-31T02:55:55.227Z,9.80
2019-01-31T03:01:35.235Z,9.80
2019-01-31T03:07:22.586Z,9.80
2019-01-31T03:13:02.447Z,9.70
2019-01-31T03:18:53.545Z,9.50
2019-01-31T03:24:22.996Z,9.50
2019-01-31T03:30:15.847Z,9.50
2019-01-31T03:35:59.791Z,9.40
2019-01-31T03:41:57.661Z,9.30
2019-01-31T03:47:46.551Z,9.30
2019-01-31T03:53:27.711Z,9.20
2019-01-31T03:58:53.916Z,9.10
2019-01-31T04:04:11.071Z,8.90
2019-01-31T04:09:17.221Z,8.90
2019-01-31T04:14:27.200Z,9.00
2019-01-31T04:19:35.208Z,9.00
2019-01-31T04:24:43.264Z,9.00
2019-01-31T04:29:50.194Z,9.10
2019-01-31T04:34:56.455Z,9.00
2019-01-31T04:40:04.497Z,9.00
2019-01-31T04:45:12.658Z,9.10
2019-01-31T04:50:20.011Z,9.10
2019-01-31T04:55:26.362Z,9.10
2019-01-31T05:00:34.553Z,9.10
2019-01-31T05:05:41.284Z,9.20
2019-01-31T05:10:48.223Z,9.30
2019-01-31T05:15:55.246Z,9.30
2019-01-31T05:21:03.872Z,9.40
2019-01-31T05:26:13.622Z,9.50
2019-01-31T05:31:21.442Z,9.40
2019-01-31T05:36:28.428Z,9.30
2019-01-31T05:41:35.929Z,9.30
2019-01-31T05:46:45.671Z,9.30
2019-01-31T05:51:55.432Z,9.20
2019-01-31T05:57:04.177Z,9.40
2019-01-31T06:02:11.878Z,9.30
2019-01-31T06:07:21.571Z,9.40
2019-01-31T06:12:28.081Z,9.50
2019-01-31T06:17:35.167Z,9.50
2019-01-31T06:22:42.886Z,9.40
2019-01-31T06:27:51.808Z,9.50
2019-01-31T06:32:57.853Z,9.50
2019-01-31T06:38:04.683Z,9.50
2019-01-31T06:43:14.521Z,9.40
2019-01-31T06:48:22.439Z,9.40
2019-01-31T06:53:29.037Z,9.40
2019-01-31T06:58:35.698Z,9.40
2019-01-31T07:03:43.319Z,9.40
2019-01-31T07:08:51.871Z,9.40
2019-01-31T07:14:00.390Z,9.50
2019-01-31T07:19:07.357Z,9.40
2019-01-31T07:24:17.037Z,9.50
2019-01-31T07:29:24.763Z,9.50
2019-01-31T07:34:32.332Z,9.50
2019-01-31T07:39:41.837Z,9.40
2019-01-31T07:44:50.186Z,9.40
2019-01-31T07:49:57.294Z,9.50
2019-01-31T07:55:04.794Z,9.50
2019-01-31T08:00:14.340Z,9.60
2019-01-31T08:05:22.891Z,9.70
2019-01-31T08:10:48.568Z,9.90
2019-01-31T08:15:57.717Z,9.90
2019-01-31T08:21:06.849Z,10.00
2019-01-31T08:26:14.571Z,9.90
2019-01-31T08:31:24.695Z,10.30
2019-01-31T08:36:32.414Z,10.40
2019-01-31T08:41:39.715Z,10.60
2019-01-31T08:46:47.143Z,10.70
2019-01-31T08:51:54.141Z,11.00
2019-01-31T08:57:02.728Z,11.20
2019-01-31T09:02:09.006Z,11.30
2019-01-31T09:07:15.523Z,11.40
2019-01-31T09:12:24.406Z,11.40
2019-01-31T09:17:32.410Z,11.50
2019-01-31T09:22:56.456Z,11.60
2019-01-31T09:28:11.295Z,11.70
2019-01-31T09:34:03.442Z,12.00
2019-01-31T09:40:10.973Z,12.30
2019-01-31T09:46:12.799Z,12.20
2019-01-31T09:51:46.483Z,12.10
2019-01-31T09:57:37.774Z,12.00
2019-01-31T10:03:41.431Z,12.00
2019-01-31T10:09:25.951Z,12.30
2019-01-31T10:14:49.895Z,12.30
2019-01-31T10:20:33.180Z,12.50
2019-01-31T10:26:13.864Z,12.40
2019-01-31T10:31:32.727Z,12.30
2019-01-31T10:36:52.815Z,12.20
2019-01-31T10:42:50.526Z,12.50
2019-01-31T10:48:35.254Z,12.50
2019-01-31T10:54:32.171Z,13.20
2019-01-31T11:00:23.974Z,13.50
2019-01-31T11:06:08.186Z,13.40
2019-01-31T11:11:32.673Z,13.20
2019-01-31T11:17:05.797Z,13.20
2019-01-31T11:22:44.718Z,13.70
2019-01-31T11:28:32.401Z,14.00
2019-01-31T11:33:51.389Z,14.00
2019-01-31T11:39:37.845Z,13.60
2019-01-31T11:45:24.981Z,13.40
2019-01-31T11:51:09.533Z,13.50
2019-01-31T11:56:41.582Z,14.10
2019-01-31T12:01:48.646Z,14.70
2019-01-31T12:06:57.128Z,15.90
2019-01-31T12:12:03.926Z,16.00
2019-01-31T12:17:11.842Z,16.20
2019-01-31T12:22:19.293Z,16.10
2019-01-31T12:27:26.952Z,16.40
2019-01-31T12:32:33.526Z,16.70
2019-01-31T12:37:41.670Z,16.40
2019-01-31T12:42:48.392Z,16.50
2019-01-31T12:47:56.078Z,16.50
2019-01-31T12:53:04.019Z,16.90
2019-01-31T12:58:11.736Z,17.60
2019-01-31T13:03:18.715Z,17.70
2019-01-31T13:08:25.754Z,17.50
2019-01-31T13:13:45.571Z,17.40
2019-01-31T13:18:44.876Z,17.50
2019-01-31T13:23:54.558Z,17.90
2019-01-31T13:29:02.367Z,17.60
2019-01-31T13:34:10.923Z,16.80
2019-01-31T13:39:21.642Z,16.50
2019-01-31T13:44:27.912Z,16.40
2019-01-31T13:49:34.291Z,16.80
2019-01-31T13:54:42.113Z,16.80
2019-01-31T13:59:48.385Z,17.10
2019-01-31T14:04:55.087Z,17.20
2019-01-31T14:10:01.402Z,17.80
2019-01-31T14:15:10.006Z,18.90
2019-01-31T14:20:20.689Z,19.60
2019-01-31T14:25:28.394Z,20.10
2019-01-31T14:30:39.300Z,20.80
2019-01-31T14:35:45.475Z,20.60
2019-01-31T14:40:53.499Z,20.70
2019-01-31T14:46:00.809Z,20.70
2019-01-31T14:51:11.387Z,21.00
2019-01-31T14:56:20.017Z,21.10
2019-01-31T15:01:27.291Z,20.80
2019-01-31T15:06:36.271Z,20.70
2019-01-31T15:11:44.024Z,20.80
2019-01-31T15:16:52.399Z,20.60
2019-01-31T15:22:00.288Z,20.10
2019-01-31T15:27:06.619Z,19.70
2019-01-31T15:32:15.103Z,20.10
2019-01-31T15:37:23.012Z,19.60
2019-01-31T15:42:30.960Z,19.10
2019-01-31T15:47:38.357Z,18.20
2019-01-31T15:52:45.547Z,17.90
2019-01-31T15:58:05.769Z,17.50
2019-01-31T16:03:15.818Z,17.30
2019-01-31T16:08:24.045Z,17.00
2019-01-31T16:13:31.669Z,17.00
2019-01-31T16:18:38.962Z,16.90
2019-01-31T16:23:45.390Z,16.70
2019-01-31T16:28:51.519Z,16.70
2019-01-31T16:33:58.370Z,16.50
2019-01-31T16:39:09.139Z,16.40
2019-01-31T16:44:17.270Z,16.20
2019-01-31T16:49:24.026Z,16.10
2019-01-31T16:54:31.806Z,16.10
2019-01-31T16:59:38.775Z,16.00
2019-01-31T17:04:44.844Z,16.00
2019-01-31T17:09:54.626Z,15.90
2019-01-31T17:15:11.410Z,15.80
2019-01-31T17:20:18.808Z,15.90
2019-01-31T17:25:25.556Z,15.90
2019-01-31T17:30:33.339Z,15.80
2019-01-31T17:35:42.640Z,15.50
2019-01-31T17:40:52.956Z,15.30
2019-01-31T17:46:01.467Z,15.30
2019-01-31T17:51:08.918Z,15.50
2019-01-31T17:56:14.986Z,15.50
2019-01-31T18:01:21.040Z,15.40
2019-01-31T18:06:27.021Z,15.30
2019-01-31T18:11:33.597Z,15.20
2019-01-31T18:16:41.474Z,15.20
2019-01-31T18:21:47.769Z,15.20
2019-01-31T18:26:55.474Z,15.20
2019-01-31T18:32:03.175Z,15.20
2019-01-31T18:37:09.782Z,15.00
2019-01-31T18:42:15.955Z,14.90
2019-01-31T18:47:24.421Z,14.90
2019-01-31T18:52:39.546Z,14.80
2019-01-31T18:57:47.574Z,14.90
2019-01-31T19:02:56.597Z,15.00
2019-01-31T19:08:08.860Z,15.00
2019-01-31T19:13:14.832Z,15.00
2019-01-31T19:18:22.406Z,15.00
2019-01-31T19:23:29.975Z,15.10
2019-01-31T19:28:38.574Z,15.20
2019-01-31T19:33:44.454Z,15.20
2019-01-31T19:38:52.450Z,15.20
2019-01-31T19:44:00.800Z,15.30
2019-01-31T19:49:08.232Z,15.30
2019-01-31T19:54:15.223Z,15.30
2019-01-31T19:59:23.254Z,15.20
2019-01-31T20:04:29.217Z,15.00
2019-01-31T20:09:36.588Z,14.80
2019-01-31T20:14:43.979Z,14.40
2019-01-31T20:19:51.857Z,14.10
2019-01-31T20:24:58.079Z,13.90
2019-01-31T20:30:05.567Z,13.90
2019-01-31T20:35:13.738Z,13.90
2019-01-31T20:40:24.152Z,13.80
2019-01-31T20:45:35.168Z,13.80
2019-01-31T20:50:43.362Z,13.70
2019-01-31T20:55:52.576Z,13.80
2019-01-31T21:01:06.095Z,13.70
2019-01-31T21:06:12.958Z,13.50
2019-01-31T21:11:23.251Z,13.40
2019-01-31T21:16:31.681Z,13.40
2019-01-31T21:21:40.945Z,13.60
2019-01-31T21:26:50.295Z,13.80
2019-01-31T21:31:57.155Z,13.90
2019-01-31T21:37:05.248Z,13.90
2019-01-31T21:42:13.664Z,13.80
2019-01-31T21:47:23.445Z,13.80
2019-01-31T21:52:38.672Z,13.50
2019-01-31T21:57:49.646Z,13.60
2019-01-31T22:02:56.328Z,13.40
2019-01-31T22:08:06.976Z,13.20
2019-01-31T22:13:14.207Z,13.10
2019-01-31T22:18:21.675Z,13.10
2019-01-31T22:23:32.730Z,13.30
2019-01-31T22:28:39.834Z,13.40
2019-01-31T22:33:47.201Z,13.50
2019-01-31T22:38:55.780Z,13.60
2019-01-31T22:44:03.332Z,13.50
2019-01-31T22:49:09.746Z,13.40
2019-01-31T22:54:16.903Z,13.40
2019-01-31T22:59:23.992Z,13.30
2019-01-31T23:04:31.962Z,13.20
2019-01-31T23:09:38.795Z,13.10
2019-01-31T23:14:44.963Z,13.10
2019-01-31T23:19:52.744Z,12.90
2019-01-31T23:24:59.652Z,12.80
2019-01-31T23:30:09.850Z,12.90
2019-01-31T23:35:19.687Z,13.00
2019-01-31T23:40:29.460Z,12.90
2019-01-31T23:45:35.683Z,12.90
2019-01-31T23:50:45.609Z,12.70
2019-01-31T23:55:53.353Z,12.20
